Terminal Aerodrome Forecast
Issued by NWS

Home | Current Version | Previous Version | Text Only | Print | Product List | Glossary On
Versions: 1 2 3 4 5 6 7 8 9 10 11 12 13
743
FTUS45 KTFX 302325
TAFBZN
TAF
KBZN 302325Z 3100/3124 34010KT P6SM SCT150
     FM310700 17006KT P6SM BKN070
     FM311500 VRB06KT P6SM SCT180=

USA.gov is the U.S. government's official web portal to all federal, state and local government web resources and services.